Time;durP1;ratioP1;P1;durP2;ratioP2;P2;SDS_P1;SDS_P2;PMS_P1;PMS_P2;Temp;Humidity;BMP_temperature;BMP_pressure;BME280_temperature;BME280_humidity;BME280_pressure;Samples;Min_cycle;Max_cycle;Signal;HPM_P1;HPM_P2
2021/11/24 00:00:55;;;;;;;12.82;7.93;;;1.50;99.90;;;;;;5074649;28;20223;-67
2021/11/24 00:03:21;;;;;;;18.33;8.95;;;1.50;99.90;;;;;;5074600;28;20570;-67
2021/11/24 00:05:48;;;;;;;17.55;8.70;;;1.50;99.90;;;;;;5074612;28;20252;-67
2021/11/24 00:08:14;;;;;;;19.85;9.10;;;1.50;99.90;;;;;;5073110;28;20192;-67
2021/11/24 00:10:41;;;;;;;12.70;9.48;;;1.40;99.90;;;;;;5074372;28;20255;-67
2021/11/24 00:13:07;;;;;;;24.45;8.93;;;1.30;99.90;;;;;;5072583;28;20204;-67
2021/11/24 00:15:34;;;;;;;12.05;9.00;;;1.30;99.90;;;;;;5074077;28;20207;-67
2021/11/24 00:18:00;;;;;;;12.32;8.18;;;1.30;99.90;;;;;;5072834;28;20216;-67
2021/11/24 00:20:27;;;;;;;11.02;8.07;;;1.40;99.90;;;;;;5073818;28;20628;-67
2021/11/24 00:22:54;;;;;;;15.38;9.50;;;1.30;99.90;;;;;;5073839;28;20567;-67
2021/11/24 00:25:20;;;;;;;10.23;9.05;;;1.30;99.90;;;;;;5074103;28;20204;-67
2021/11/24 00:27:47;;;;;;;14.20;9.10;;;1.30;99.90;;;;;;5073843;28;20196;-65
2021/11/24 00:30:14;;;;;;;14.63;8.05;;;1.20;99.90;;;;;;5074037;28;20685;-65
2021/11/24 00:32:41;;;;;;;11.80;8.50;;;1.20;99.90;;;;;;5073315;28;20273;-66
2021/11/24 00:35:08;;;;;;;14.60;8.48;;;1.20;99.90;;;;;;5073367;28;20685;-66
2021/11/24 00:37:35;;;;;;;8.38;7.55;;;1.20;99.90;;;;;;5073969;28;20222;-66
2021/11/24 00:40:03;;;;;;;9.43;8.05;;;1.20;99.90;;;;;;5073919;28;20216;-67
2021/11/24 00:42:29;;;;;;;9.93;8.43;;;1.20;99.90;;;;;;5073610;28;20204;-67
2021/11/24 00:44:56;;;;;;;11.23;8.18;;;1.20;99.90;;;;;;5072731;28;20548;-67
2021/11/24 00:47:22;;;;;;;9.25;8.20;;;1.20;99.90;;;;;;5073773;28;20215;-67
2021/11/24 00:49:49;;;;;;;9.48;7.63;;;1.20;99.90;;;;;;5071694;28;20249;-65
2021/11/24 00:52:15;;;;;;;10.95;8.15;;;1.20;99.90;;;;;;5073651;28;20199;-65
2021/11/24 00:54:42;;;;;;;10.05;8.32;;;1.20;99.90;;;;;;5073471;28;20582;-65
2021/11/24 00:57:08;;;;;;;13.18;8.20;;;1.20;99.90;;;;;;5073871;28;20600;-66
2021/11/24 00:59:35;;;;;;;18.60;8.73;;;1.20;99.90;;;;;;5073445;28;20702;-66
2021/11/24 01:02:01;;;;;;;13.55;7.80;;;1.20;99.90;;;;;;5073877;28;20200;-66
2021/11/24 01:04:28;;;;;;;22.15;8.35;;;1.20;99.90;;;;;;5073256;28;20195;-65
2021/11/24 01:06:54;;;;;;;12.20;7.93;;;1.20;99.90;;;;;;5073333;28;20192;-66
2021/11/24 01:09:21;;;;;;;11.98;7.63;;;1.20;99.90;;;;;;5073701;28;20204;-66
2021/11/24 01:11:47;;;;;;;16.55;7.82;;;1.20;99.90;;;;;;5073350;28;20208;-66
2021/11/24 01:14:14;;;;;;;12.85;8.25;;;1.10;99.90;;;;;;5073522;28;20547;-66
2021/11/24 01:16:42;;;;;;;11.18;7.90;;;1.10;99.90;;;;;;5073217;28;20229;-66
2021/11/24 01:19:09;;;;;;;9.85;8.27;;;1.10;99.90;;;;;;5075339;28;20203;-66
2021/11/24 01:21:35;;;;;;;10.07;7.97;;;1.10;99.90;;;;;;5077375;28;20224;-66
2021/11/24 01:24:02;;;;;;;13.32;6.65;;;1.00;99.90;;;;;;5077716;28;20200;-66
2021/11/24 01:26:29;;;;;;;9.50;7.22;;;1.00;99.90;;;;;;5077234;28;20200;-66
2021/11/24 01:28:55;;;;;;;9.77;8.07;;;1.00;99.90;;;;;;5077165;28;20204;-66
2021/11/24 01:31:22;;;;;;;10.27;7.88;;;0.90;99.90;;;;;;5077258;28;20199;-65
2021/11/24 01:33:48;;;;;;;9.27;7.90;;;0.90;99.90;;;;;;5077176;28;20659;-66
2021/11/24 01:36:15;;;;;;;12.73;7.93;;;0.80;99.90;;;;;;5077132;28;20257;-65
2021/11/24 01:38:41;;;;;;;11.20;8.70;;;0.80;99.90;;;;;;5077353;28;20212;-65
2021/11/24 01:41:08;;;;;;;11.93;8.65;;;0.80;99.90;;;;;;5077021;28;20223;-65
2021/11/24 01:43:37;;;;;;;11.90;8.35;;;0.80;99.90;;;;;;5077074;28;20609;-67
2021/11/24 01:46:03;;;;;;;18.15;10.35;;;0.80;99.90;;;;;;5077196;28;20200;-66
2021/11/24 01:48:30;;;;;;;13.82;9.27;;;0.70;99.90;;;;;;5077001;28;20200;-66
2021/11/24 01:50:58;;;;;;;11.05;8.98;;;0.70;99.90;;;;;;5059049;28;20215;-66
2021/11/24 01:53:26;;;;;;;17.73;9.27;;;0.70;99.90;;;;;;5076608;28;20231;-66
2021/11/24 01:55:55;;;;;;;16.02;9.80;;;0.70;99.90;;;;;;5076923;28;20680;-66
2021/11/24 01:58:24;;;;;;;14.40;9.98;;;0.60;99.90;;;;;;5077035;28;20210;-66
2021/11/24 02:00:51;;;;;;;12.93;8.15;;;0.60;99.90;;;;;;5077138;28;20566;-66
2021/11/24 02:03:18;;;;;;;11.88;8.80;;;0.50;99.90;;;;;;5076571;28;20721;-66
2021/11/24 02:05:44;;;;;;;13.60;9.13;;;0.50;99.90;;;;;;5076675;28;20196;-66
2021/11/24 02:08:11;;;;;;;22.90;11.10;;;0.60;99.90;;;;;;5075524;28;20203;-66
2021/11/24 02:10:37;;;;;;;13.30;10.48;;;0.60;99.90;;;;;;5076372;28;20204;-66
2021/11/24 02:13:04;;;;;;;12.30;9.45;;;0.60;99.90;;;;;;5076264;28;20686;-66
2021/11/24 02:15:30;;;;;;;14.48;10.18;;;0.60;99.90;;;;;;5076149;28;20212;-66
2021/11/24 02:18:02;;;;;;;15.70;9.40;;;0.60;99.90;;;;;;5076327;28;20662;-66
2021/11/24 02:20:45;;;;;;;15.57;10.45;;;0.60;99.90;;;;;;5076418;28;20269;-66
2021/11/24 02:23:14;;;;;;;12.00;9.23;;;0.70;99.90;;;;;;5076424;28;20674;-66
2021/11/24 02:25:42;;;;;;;13.13;9.20;;;0.60;99.90;;;;;;5076044;28;20211;-66
2021/11/24 02:28:08;;;;;;;14.43;9.85;;;0.60;99.90;;;;;;5076291;28;20593;-66
2021/11/24 02:30:35;;;;;;;12.70;9.63;;;0.50;99.90;;;;;;5074872;28;20212;-66
2021/11/24 02:33:02;;;;;;;15.20;9.88;;;0.50;99.90;;;;;;5076142;28;20200;-66
2021/11/24 02:35:29;;;;;;;14.32;10.73;;;0.60;99.90;;;;;;5076079;28;20204;-66
2021/11/24 02:37:55;;;;;;;14.40;9.13;;;0.60;99.90;;;;;;5076053;28;20204;-66
2021/11/24 02:40:31;;;;;;;16.08;10.75;;;0.60;99.90;;;;;;5074777;28;20253;-66
2021/11/24 02:42:58;;;;;;;14.63;11.23;;;0.50;99.90;;;;;;5076177;28;20679;-66
2021/11/24 02:45:25;;;;;;;14.13;9.38;;;0.50;99.90;;;;;;5075753;28;20192;-66
2021/11/24 02:47:51;;;;;;;15.82;9.88;;;0.50;99.90;;;;;;5076229;28;20268;-66
2021/11/24 02:50:18;;;;;;;12.88;10.45;;;0.50;99.90;;;;;;5075722;28;20231;-67
2021/11/24 02:52:44;;;;;;;16.27;10.80;;;0.50;99.90;;;;;;5076104;28;20208;-67
2021/11/24 02:55:11;;;;;;;12.38;10.80;;;0.40;99.90;;;;;;5076152;28;20212;-66
2021/11/24 02:57:40;;;;;;;17.90;10.65;;;0.40;99.90;;;;;;5075749;28;20237;-66
2021/11/24 03:00:16;;;;;;;16.80;10.25;;;0.40;99.90;;;;;;5075510;28;20199;-66
2021/11/24 03:02:44;;;;;;;13.27;9.77;;;0.40;99.90;;;;;;5075665;28;20275;-67
2021/11/24 03:05:11;;;;;;;12.23;10.73;;;0.30;99.90;;;;;;5075618;28;20204;-66
2021/11/24 03:07:39;;;;;;;16.23;10.95;;;0.30;99.90;;;;;;5075672;28;20712;-66
2021/11/24 03:10:06;;;;;;;14.68;10.20;;;0.30;99.90;;;;;;5075394;28;20204;-65
2021/11/24 03:12:34;;;;;;;16.98;11.13;;;0.30;99.90;;;;;;5075376;28;20204;-65
2021/11/24 03:15:02;;;;;;;15.13;11.07;;;0.20;99.90;;;;;;5075281;28;20208;-65
2021/11/24 03:17:29;;;;;;;16.77;11.13;;;0.30;99.90;;;;;;5074090;28;20663;-67
2021/11/24 03:19:57;;;;;;;12.82;10.50;;;0.30;99.90;;;;;;5075576;28;20560;-67
2021/11/24 03:22:24;;;;;;;15.07;10.85;;;0.30;99.90;;;;;;5057965;28;20200;-65
2021/11/24 03:24:56;;;;;;;15.27;10.80;;;0.30;99.90;;;;;;5075115;28;20208;-65
2021/11/24 03:27:37;;;;;;;14.05;11.15;;;0.20;99.90;;;;;;5074332;28;20222;-66
2021/11/24 03:30:08;;;;;;;14.10;11.10;;;0.20;99.90;;;;;;5074729;28;20659;-66
2021/11/24 03:32:35;;;;;;;14.88;12.15;;;0.30;99.90;;;;;;5075370;28;20188;-67
2021/11/24 03:35:02;;;;;;;20.42;12.30;;;0.30;99.90;;;;;;5075150;28;20192;-67
2021/11/24 03:37:28;;;;;;;15.32;12.50;;;0.20;99.90;;;;;;5074959;28;20196;-67
2021/11/24 03:39:54;;;;;;;17.52;11.88;;;0.30;99.90;;;;;;5075195;28;20196;-66
2021/11/24 03:42:21;;;;;;;15.07;11.57;;;0.20;99.90;;;;;;5074655;28;20239;-67
2021/11/24 03:44:48;;;;;;;14.20;11.13;;;0.20;99.90;;;;;;5074929;28;20196;-67
2021/11/24 03:47:14;;;;;;;15.00;11.55;;;0.20;99.90;;;;;;5074888;28;20199;-67
2021/11/24 03:49:41;;;;;;;20.38;12.95;;;0.10;99.90;;;;;;5074435;28;20234;-66
2021/11/24 03:52:09;;;;;;;18.75;12.38;;;0.10;99.90;;;;;;5075181;28;20204;-67
2021/11/24 03:54:36;;;;;;;20.85;10.95;;;0.20;99.90;;;;;;5074624;28;20718;-66
2021/11/24 03:57:03;;;;;;;17.73;10.88;;;0.20;99.90;;;;;;5074407;28;20659;-66
2021/11/24 03:59:29;;;;;;;29.88;11.90;;;0.30;99.90;;;;;;5074729;28;20210;-66
2021/11/24 04:01:55;;;;;;;13.35;9.88;;;0.50;99.90;;;;;;5074275;28;20242;-67
2021/11/24 04:04:22;;;;;;;19.77;11.43;;;0.50;99.90;;;;;;5074215;28;20199;-66
2021/11/24 04:06:48;;;;;;;19.25;11.38;;;0.60;99.90;;;;;;5074431;28;20203;-66
2021/11/24 04:09:14;;;;;;;17.95;11.75;;;0.60;99.90;;;;;;5074534;28;20207;-66
2021/11/24 04:11:41;;;;;;;17.58;10.93;;;0.60;99.90;;;;;;5074621;28;20215;-66
2021/11/24 04:14:07;;;;;;;15.80;12.82;;;0.60;99.90;;;;;;5074495;28;20196;-66
2021/11/24 04:16:33;;;;;;;17.80;11.48;;;0.60;99.90;;;;;;5073136;28;20196;-66
2021/11/24 04:19:01;;;;;;;19.70;11.35;;;0.50;99.90;;;;;;5074025;28;20207;-66
2021/11/24 04:21:28;;;;;;;14.50;10.57;;;0.50;99.90;;;;;;5073717;28;20242;-66
2021/11/24 04:23:55;;;;;;;14.90;10.55;;;0.50;99.90;;;;;;5074329;28;20196;-65
2021/11/24 04:26:21;;;;;;;17.98;10.88;;;0.60;99.90;;;;;;5072772;28;20573;-65
2021/11/24 04:28:47;;;;;;;10.98;9.38;;;0.60;99.90;;;;;;5073776;28;20678;-65
2021/11/24 04:31:14;;;;;;;18.67;9.95;;;0.60;99.90;;;;;;5073607;28;20547;-66
2021/11/24 04:33:40;;;;;;;15.02;11.85;;;0.60;99.90;;;;;;5074051;28;20212;-66
2021/11/24 04:36:07;;;;;;;15.98;11.55;;;0.60;99.90;;;;;;5073940;28;20585;-66
2021/11/24 04:38:34;;;;;;;17.00;11.70;;;0.60;99.90;;;;;;5074059;28;20212;-66
2021/11/24 04:41:01;;;;;;;19.15;12.73;;;0.60;99.90;;;;;;5073726;28;20232;-67
2021/11/24 04:43:31;;;;;;;14.52;11.15;;;0.70;99.90;;;;;;5073647;28;20199;-66
2021/11/24 04:46:00;;;;;;;16.75;11.35;;;0.70;99.90;;;;;;5073667;28;20180;-66
2021/11/24 04:48:27;;;;;;;21.40;12.30;;;0.70;99.90;;;;;;5074144;28;20537;-66
2021/11/24 04:50:54;;;;;;;17.92;11.25;;;0.80;99.90;;;;;;5074673;28;20230;-66
2021/11/24 04:53:21;;;;;;;14.40;11.43;;;0.90;99.90;;;;;;5073500;28;20593;-66
2021/11/24 04:55:48;;;;;;;24.50;12.70;;;1.00;99.90;;;;;;5073529;28;20584;-66
2021/11/24 04:58:14;;;;;;;19.52;12.55;;;1.10;99.90;;;;;;5073734;28;20200;-68
2021/11/24 05:00:41;;;;;;;19.20;12.65;;;1.10;99.90;;;;;;5073481;28;20224;-66
2021/11/24 05:03:07;;;;;;;19.42;12.45;;;1.20;99.90;;;;;;5073824;28;20200;-66
2021/11/24 05:05:34;;;;;;;28.52;13.27;;;1.20;99.90;;;;;;5073381;28;20204;-66
2021/11/24 05:08:02;;;;;;;19.23;14.48;;;1.20;99.90;;;;;;5072005;28;20615;-66
2021/11/24 05:10:29;;;;;;;19.77;13.35;;;1.10;99.90;;;;;;5055439;28;20199;-66
2021/11/24 05:12:56;;;;;;;28.85;14.55;;;1.10;99.90;;;;;;5073395;28;20682;-67
2021/11/24 05:15:26;;;;;;;16.73;12.57;;;1.10;99.90;;;;;;5073675;28;20200;-67
2021/11/24 05:17:57;;;;;;;15.10;11.45;;;1.10;99.90;;;;;;5073778;28;20624;-67
2021/11/24 05:20:26;;;;;;;19.00;13.50;;;1.00;99.90;;;;;;5073737;28;20203;-66
2021/11/24 05:22:54;;;;;;;24.58;12.23;;;1.00;99.90;;;;;;5073363;28;20655;-67
2021/11/24 05:25:20;;;;;;;18.35;13.35;;;1.00;99.90;;;;;;5073611;28;20228;-66
2021/11/24 05:27:47;;;;;;;20.42;13.45;;;0.90;99.90;;;;;;5073236;28;20196;-67
2021/11/24 05:30:13;;;;;;;19.95;14.90;;;0.90;99.90;;;;;;5073629;28;20196;-67
2021/11/24 05:32:40;;;;;;;19.73;12.80;;;0.90;99.90;;;;;;5073013;28;20215;-67
2021/11/24 05:35:07;;;;;;;17.98;12.63;;;0.80;99.90;;;;;;5073144;28;20208;-66
2021/11/24 05:37:33;;;;;;;20.65;13.88;;;0.70;99.90;;;;;;5073517;28;20211;-66
2021/11/24 05:40:00;;;;;;;19.60;13.95;;;0.60;99.90;;;;;;5072917;28;20241;-66
2021/11/24 05:42:27;;;;;;;18.25;13.07;;;0.60;99.90;;;;;;5072979;28;20224;-66
2021/11/24 05:45:03;;;;;;;20.00;14.40;;;0.60;99.90;;;;;;5073203;28;20192;-67
2021/11/24 05:50:16;;;;;;;21.83;15.43;;;0.70;99.90;;;;;;5072849;28;20238;-66
2021/11/24 05:52:42;;;;;;;29.27;13.88;;;0.70;99.90;;;;;;5072789;28;20257;-66
2021/11/24 05:55:09;;;;;;;20.05;14.02;;;0.80;99.90;;;;;;5073244;28;20196;-66
2021/11/24 05:57:36;;;;;;;27.92;16.30;;;0.70;99.90;;;;;;5073202;28;20562;-66
2021/11/24 06:00:04;;;;;;;22.95;15.63;;;0.80;99.90;;;;;;5073168;28;20207;-66
2021/11/24 06:02:31;;;;;;;19.70;14.93;;;0.80;99.90;;;;;;5072929;28;20223;-66
2021/11/24 06:04:58;;;;;;;20.13;14.98;;;0.80;99.90;;;;;;5074689;28;20203;-66
2021/11/24 06:07:24;;;;;;;28.10;15.90;;;0.80;99.90;;;;;;5076589;28;20200;-66
2021/11/24 06:09:50;;;;;;;23.38;16.90;;;0.70;99.90;;;;;;5076875;28;20204;-67
2021/11/24 06:12:17;;;;;;;24.25;16.15;;;0.70;99.90;;;;;;5076424;28;20724;-66
2021/11/24 06:14:46;;;;;;;28.25;17.48;;;0.60;99.90;;;;;;5076887;28;20211;-66
2021/11/24 06:17:13;;;;;;;28.50;17.25;;;0.60;99.90;;;;;;5076818;28;20203;-66
2021/11/24 06:19:39;;;;;;;22.20;16.70;;;0.60;99.90;;;;;;5075112;28;20206;-67
2021/11/24 06:22:06;;;;;;;26.25;16.83;;;0.60;99.90;;;;;;5076475;28;20224;-67
2021/11/24 06:24:32;;;;;;;26.92;17.90;;;0.60;99.90;;;;;;5076131;28;20207;-67
2021/11/24 06:26:59;;;;;;;28.52;18.73;;;0.50;99.90;;;;;;5075539;28;20214;-66
2021/11/24 06:29:25;;;;;;;25.92;18.45;;;0.40;99.90;;;;;;5076687;28;20207;-66
2021/11/24 06:31:52;;;;;;;24.17;17.23;;;0.40;99.90;;;;;;5074844;28;20211;-67
2021/11/24 06:34:19;;;;;;;24.55;16.73;;;0.40;99.90;;;;;;5075073;28;20207;-67
2021/11/24 06:36:45;;;;;;;26.50;19.63;;;0.30;99.90;;;;;;5076194;28;20234;-66
2021/11/24 06:39:12;;;;;;;26.70;19.08;;;0.30;99.90;;;;;;5075856;28;20667;-66
2021/11/24 06:41:38;;;;;;;24.90;17.13;;;0.30;99.90;;;;;;5075781;28;20224;-67
2021/11/24 06:44:05;;;;;;;22.33;14.98;;;0.30;99.90;;;;;;5076179;28;20212;-67
2021/11/24 06:46:33;;;;;;;26.13;17.20;;;0.30;99.90;;;;;;5076057;28;20208;-67
2021/11/24 06:48:59;;;;;;;26.80;16.48;;;0.40;99.90;;;;;;5075765;28;20220;-67
2021/11/24 06:51:26;;;;;;;34.35;18.15;;;0.40;99.90;;;;;;5075900;28;20208;-66
2021/11/24 06:53:52;;;;;;;26.42;17.63;;;0.50;99.90;;;;;;5075953;28;20223;-67
2021/11/24 06:56:19;;;;;;;31.13;18.05;;;0.50;99.90;;;;;;5076215;28;20206;-67
2021/11/24 06:58:45;;;;;;;25.98;16.88;;;0.40;99.90;;;;;;5076296;28;20260;-67
2021/11/24 07:01:12;;;;;;;25.20;16.75;;;0.40;99.90;;;;;;5076122;28;20226;-67
2021/11/24 07:03:38;;;;;;;29.05;17.30;;;0.50;99.90;;;;;;5075615;28;20669;-67
2021/11/24 07:06:05;;;;;;;25.35;17.80;;;0.40;99.90;;;;;;5075404;28;20279;-67
2021/11/24 07:08:31;;;;;;;27.08;18.15;;;0.40;99.90;;;;;;5075620;28;20200;-66
2021/11/24 07:10:58;;;;;;;33.40;17.48;;;0.30;99.90;;;;;;5075227;28;20207;-67
2021/11/24 07:13:24;;;;;;;29.25;19.38;;;0.20;99.90;;;;;;5075816;28;20204;-67
2021/11/24 07:15:51;;;;;;;28.50;17.67;;;0.20;99.90;;;;;;5074914;28;20211;-67
2021/11/24 07:18:18;;;;;;;25.83;15.73;;;0.10;99.90;;;;;;5075387;28;20200;-67
2021/11/24 07:20:44;;;;;;;28.70;17.63;;;0.10;99.90;;;;;;5074656;28;20207;-67
2021/11/24 07:23:10;;;;;;;28.08;16.13;;;0.10;99.90;;;;;;5075308;28;20738;-67
2021/11/24 07:25:37;;;;;;;28.45;17.75;;;0.10;99.90;;;;;;5075529;28;20200;-67
2021/11/24 07:28:04;;;;;;;30.30;17.77;;;0.10;99.90;;;;;;5075360;28;20258;-67
2021/11/24 07:30:31;;;;;;;32.20;18.10;;;0.10;99.90;;;;;;5075248;28;20207;-67
2021/11/24 07:32:57;;;;;;;25.08;18.25;;;0.10;99.90;;;;;;5075404;28;20211;-67
2021/11/24 07:35:24;;;;;;;28.23;17.40;;;0.10;99.90;;;;;;5075235;28;20548;-67
2021/11/24 07:37:50;;;;;;;31.65;18.48;;;0.10;99.90;;;;;;5075116;28;20211;-67
2021/11/24 07:40:21;;;;;;;27.88;18.02;;;0.10;99.90;;;;;;5075360;28;20560;-67
2021/11/24 07:42:49;;;;;;;36.95;21.50;;;0.10;99.90;;;;;;5075208;28;20227;-67
2021/11/24 07:45:16;;;;;;;30.52;19.27;;;0.10;99.90;;;;;;5073486;28;20208;-67
2021/11/24 07:47:43;;;;;;;32.97;21.08;;;0.20;99.90;;;;;;5073380;28;20268;-67
2021/11/24 07:50:09;;;;;;;30.70;20.20;;;0.20;99.90;;;;;;5074444;28;20231;-67
2021/11/24 07:52:36;;;;;;;26.98;18.73;;;0.20;99.90;;;;;;5074983;28;20200;-68
2021/11/24 07:55:04;;;;;;;31.17;19.88;;;0.20;99.90;;;;;;5074718;28;20224;-68
2021/11/24 07:57:30;;;;;;;27.63;17.23;;;0.20;99.90;;;;;;5074742;28;20556;-68
2021/11/24 07:59:57;;;;;;;29.45;18.80;;;0.30;99.90;;;;;;5074869;28;20204;-67
2021/11/24 08:02:23;;;;;;;28.88;18.58;;;0.30;99.90;;;;;;5074808;28;20295;-68
2021/11/24 08:04:51;;;;;;;33.35;19.00;;;0.30;99.90;;;;;;5074945;28;20200;-67
2021/11/24 08:07:18;;;;;;;27.20;18.58;;;0.40;99.90;;;;;;5074998;28;20211;-67
2021/11/24 08:09:44;;;;;;;32.92;20.08;;;0.40;99.90;;;;;;5075025;28;20545;-67
2021/11/24 08:12:11;;;;;;;26.67;16.90;;;0.50;99.90;;;;;;5074617;28;20219;-67
2021/11/24 08:14:37;;;;;;;25.73;18.98;;;0.50;99.90;;;;;;5074536;28;20210;-66
2021/11/24 08:17:04;;;;;;;26.63;18.20;;;0.50;99.90;;;;;;5074567;28;20211;-68
2021/11/24 08:19:30;;;;;;;29.98;18.33;;;0.60;99.90;;;;;;5073329;28;20624;-67
2021/11/24 08:21:57;;;;;;;26.08;18.52;;;0.80;99.90;;;;;;5073803;28;20216;-67
2021/11/24 08:24:23;;;;;;;27.55;17.52;;;0.80;99.90;;;;;;5074031;28;20618;-67
2021/11/24 08:26:52;;;;;;;26.63;17.42;;;0.80;99.90;;;;;;5073801;28;20200;-67
2021/11/24 08:29:19;;;;;;;28.83;17.50;;;0.80;99.90;;;;;;5073320;28;20192;-67
2021/11/24 08:31:46;;;;;;;26.40;17.55;;;1.00;99.90;;;;;;5074310;28;20536;-67
2021/11/24 08:34:13;;;;;;;25.52;17.60;;;1.10;99.90;;;;;;5074438;28;20204;-69
2021/11/24 08:36:40;;;;;;;29.30;17.80;;;1.20;99.90;;;;;;5074349;28;20281;-67
2021/11/24 08:39:08;;;;;;;24.85;16.83;;;1.20;99.90;;;;;;5074287;28;20200;-68
2021/11/24 08:41:35;;;;;;;21.42;14.55;;;1.30;99.90;;;;;;5073800;28;20220;-67
2021/11/24 08:44:02;;;;;;;20.27;15.25;;;1.50;99.90;;;;;;5074054;28;20597;-67
2021/11/24 08:46:28;;;;;;;21.40;16.05;;;1.50;99.90;;;;;;5074138;28;20211;-68
2021/11/24 08:48:55;;;;;;;28.38;15.55;;;1.60;99.90;;;;;;5073944;28;20262;-66
2021/11/24 08:51:21;;;;;;;21.40;14.95;;;1.60;99.90;;;;;;5072699;28;20204;-67
2021/11/24 08:53:48;;;;;;;19.40;14.55;;;1.70;99.90;;;;;;5074070;28;20227;-70
2021/11/24 08:56:15;;;;;;;22.20;13.98;;;1.80;99.90;;;;;;5073908;28;20204;-67
2021/11/24 08:58:41;;;;;;;19.63;15.20;;;2.00;99.90;;;;;;5055930;28;20257;-67
2021/11/24 09:01:08;;;;;;;23.60;15.13;;;2.20;99.90;;;;;;5073393;28;20550;-67
2021/11/24 09:03:34;;;;;;;20.83;14.13;;;2.20;99.90;;;;;;5073997;28;20224;-67
2021/11/24 09:06:03;;;;;;;20.02;13.18;;;2.20;99.90;;;;;;5074043;28;20214;-68
2021/11/24 09:08:30;;;;;;;17.67;13.65;;;2.50;99.90;;;;;;5073597;28;20286;-67
2021/11/24 09:10:57;;;;;;;15.18;11.30;;;2.70;99.90;;;;;;5073583;28;20203;-67
2021/11/24 09:13:24;;;;;;;15.82;11.70;;;2.70;99.90;;;;;;5073826;28;20204;-66
2021/11/24 09:15:50;;;;;;;15.68;11.82;;;2.80;99.90;;;;;;5074129;28;20579;-67
2021/11/24 09:18:17;;;;;;;14.73;11.30;;;3.00;99.90;;;;;;5074406;28;20200;-67
2021/11/24 09:20:46;;;;;;;19.15;11.55;;;3.10;99.90;;;;;;5074683;28;20257;-68
2021/11/24 09:23:17;;;;;;;18.30;12.60;;;3.00;99.90;;;;;;5073499;28;20220;-68
2021/11/24 09:25:52;;;;;;;18.67;12.70;;;3.10;99.90;;;;;;5073464;28;20203;-68
2021/11/24 09:28:21;;;;;;;18.75;11.93;;;3.20;99.90;;;;;;5073772;28;20176;-68
2021/11/24 09:30:49;;;;;;;15.13;11.20;;;3.30;99.90;;;;;;5072322;28;20614;-68
2021/11/24 09:33:17;;;;;;;16.88;12.50;;;3.50;99.90;;;;;;5073519;28;20203;-68
2021/11/24 09:35:43;;;;;;;15.40;11.95;;;3.40;99.90;;;;;;5072176;28;20208;-68
2021/11/24 09:38:10;;;;;;;17.25;11.95;;;3.50;99.90;;;;;;5073489;28;20204;-68
2021/11/24 09:40:36;;;;;;;18.00;12.15;;;3.70;99.90;;;;;;5075993;28;20208;-69
2021/11/24 09:43:06;;;;;;;16.13;12.13;;;3.40;99.90;;;;;;5077394;28;20228;-68
2021/11/24 09:45:35;;;;;;;17.77;14.60;;;3.30;99.90;;;;;;5076761;28;20203;-68
2021/11/24 09:48:02;;;;;;;20.83;12.82;;;3.10;99.90;;;;;;5077306;28;20627;-68
2021/11/24 09:50:33;;;;;;;14.98;11.43;;;3.20;99.90;;;;;;5077139;28;20300;-68
2021/11/24 09:52:59;;;;;;;17.10;12.18;;;3.10;99.90;;;;;;5076924;28;20190;-69
2021/11/24 09:55:29;;;;;;;16.05;12.65;;;3.30;99.90;;;;;;5059077;28;20230;-68
2021/11/24 09:57:56;;;;;;;23.75;14.27;;;3.50;99.90;;;;;;5076630;28;20208;-68
2021/11/24 10:00:25;;;;;;;16.02;11.30;;;3.60;99.90;;;;;;5076973;28;20208;-68
2021/11/24 10:02:56;;;;;;;17.35;12.93;;;3.70;99.90;;;;;;5077055;28;20224;-68
2021/11/24 10:05:24;;;;;;;18.17;13.18;;;4.00;99.90;;;;;;5075882;28;20224;-68
2021/11/24 10:07:50;;;;;;;16.15;12.48;;;4.10;99.90;;;;;;5076845;28;20200;-68
2021/11/24 10:10:17;;;;;;;14.57;11.90;;;4.20;99.90;;;;;;5077172;28;20204;-68
2021/11/24 10:12:44;;;;;;;14.77;11.60;;;4.40;99.90;;;;;;5076098;28;20204;-68
2021/11/24 10:15:30;;;;;;;19.42;11.60;;;4.40;99.90;;;;;;5077018;28;20223;-68
2021/11/24 10:18:21;;;;;;;15.55;11.57;;;4.20;99.90;;;;;;5076573;28;20682;-68
2021/11/24 10:21:01;;;;;;;13.82;11.25;;;4.10;99.90;;;;;;5076890;28;20207;-68
2021/11/24 10:23:34;;;;;;;16.65;10.93;;;4.20;99.90;;;;;;5076512;28;20667;-68
2021/11/24 10:26:23;;;;;;;15.32;11.45;;;4.30;99.90;;;;;;5077060;28;20284;-68
2021/11/24 10:28:53;;;;;;;16.60;10.40;;;4.40;99.90;;;;;;5076523;28;20187;-68
2021/11/24 10:31:24;;;;;;;13.27;10.35;;;4.50;99.90;;;;;;5076467;28;20554;-69
2021/11/24 10:33:51;;;;;;;12.80;9.70;;;4.40;99.90;;;;;;5076263;28;20204;-68
2021/11/24 10:36:18;;;;;;;12.23;10.40;;;4.60;99.90;;;;;;5076589;28;20208;-68
2021/11/24 10:38:47;;;;;;;12.75;9.85;;;4.90;99.90;;;;;;5076634;28;20200;-69
2021/11/24 10:41:30;;;;;;;13.65;11.15;;;5.00;99.90;;;;;;5076075;28;20204;-68
2021/11/24 10:43:56;;;;;;;10.90;9.80;;;5.30;99.90;;;;;;5075969;28;20580;-68
2021/11/24 10:46:26;;;;;;;12.45;9.98;;;5.70;99.90;;;;;;5076201;28;20196;-67
2021/11/24 10:49:18;;;;;;;18.05;9.85;;;5.60;99.90;;;;;;5075516;28;20232;-67
2021/11/24 10:51:45;;;;;;;11.63;10.48;;;5.90;99.90;;;;;;5073459;28;20282;-68
2021/11/24 10:54:18;;;;;;;17.98;9.85;;;5.50;99.90;;;;;;5075662;28;20272;-69
2021/11/24 10:57:02;;;;;;;9.63;8.63;;;5.90;99.90;;;;;;5075842;28;20176;-68
2021/11/24 10:59:31;;;;;;;15.55;9.13;;;5.50;99.90;;;;;;5075576;28;20196;-68
2021/11/24 11:02:21;;;;;;;11.30;9.48;;;5.80;99.90;;;;;;5075515;28;20228;-68
2021/11/24 11:04:54;;;;;;;16.63;9.48;;;5.40;99.90;;;;;;5075069;28;20603;-68
2021/11/24 11:07:21;;;;;;;12.18;8.23;;;5.40;99.90;;;;;;5075526;28;20203;-68
2021/11/24 11:09:47;;;;;;;11.95;9.85;;;5.50;99.90;;;;;;5074032;28;20569;-67
2021/11/24 11:12:15;;;;;;;14.45;9.65;;;5.30;99.90;;;;;;5075218;28;20309;-68
2021/11/24 11:14:42;;;;;;;10.40;8.93;;;5.30;99.90;;;;;;5075923;28;20573;-68
2021/11/24 11:17:10;;;;;;;10.57;8.55;;;5.20;99.90;;;;;;5075206;28;20589;-68
2021/11/24 11:19:38;;;;;;;12.68;9.70;;;5.00;99.90;;;;;;5075140;28;20740;-69
2021/11/24 11:22:09;;;;;;;12.98;10.45;;;5.10;99.90;;;;;;5074158;28;20220;-69
2021/11/24 11:24:36;;;;;;;11.90;9.52;;;5.70;99.90;;;;;;5074968;28;20188;-69
2021/11/24 11:27:03;;;;;;;11.88;9.10;;;5.80;99.90;;;;;;5075159;28;20200;-68
2021/11/24 11:29:30;;;;;;;12.48;10.02;;;6.20;99.90;;;;;;5075471;28;20196;-67
2021/11/24 11:31:58;;;;;;;16.83;9.45;;;6.30;99.90;;;;;;5075228;28;20219;-68
2021/11/24 11:34:25;;;;;;;10.50;8.93;;;6.30;99.90;;;;;;5073816;28;20257;-69
2021/11/24 11:36:52;;;;;;;11.00;9.63;;;6.10;99.90;;;;;;5075069;28;20200;-68
2021/11/24 11:39:18;;;;;;;11.50;7.95;;;6.60;99.90;;;;;;5074975;28;20215;-68
2021/11/24 11:41:45;;;;;;;15.45;10.52;;;6.90;99.90;;;;;;5075149;28;20211;-69
2021/11/24 11:44:14;;;;;;;9.68;8.68;;;6.30;99.90;;;;;;5074790;28;20199;-69
2021/11/24 11:46:44;;;;;;;12.15;8.93;;;6.20;99.90;;;;;;5074708;28;20568;-68
2021/11/24 11:49:13;;;;;;;11.90;9.88;;;6.40;99.90;;;;;;5074445;28;20224;-68
2021/11/24 11:51:41;;;;;;;16.52;9.35;;;6.50;99.90;;;;;;5074791;28;20219;-68
2021/11/24 11:54:10;;;;;;;10.63;9.10;;;6.10;99.90;;;;;;5074652;28;20223;-67
2021/11/24 11:56:45;;;;;;;14.35;9.55;;;6.00;99.90;;;;;;5073532;28;20253;-69
2021/11/24 11:59:19;;;;;;;10.70;8.80;;;6.50;99.90;;;;;;5074698;28;20214;-69
2021/11/24 12:01:46;;;;;;;22.63;9.60;;;7.00;99.90;;;;;;5074805;28;20655;-68
2021/11/24 12:04:17;;;;;;;13.85;9.23;;;7.20;99.90;;;;;;5074497;28;20246;-69
2021/11/24 12:07:07;;;;;;;15.18;9.27;;;7.80;99.90;;;;;;5074208;28;20688;-69
2021/11/24 12:09:47;;;;;;;6.90;6.20;;;8.10;99.90;;;;;;5074915;28;20226;-69
2021/11/24 12:12:27;;;;;;;9.68;8.60;;;8.60;99.90;;;;;;5074648;28;20225;-69
2021/11/24 12:15:05;;;;;;;7.57;6.93;;;8.00;99.90;;;;;;5074631;28;20550;-68
2021/11/24 12:17:44;;;;;;;9.93;8.48;;;7.30;99.90;;;;;;5072994;28;20208;-69
2021/11/24 12:20:14;;;;;;;9.77;6.95;;;7.30;99.90;;;;;;5074098;28;20208;-68
2021/11/24 12:22:50;;;;;;;8.75;7.68;;;7.60;99.90;;;;;;5073580;28;20235;-68
2021/11/24 12:25:29;;;;;;;11.07;7.55;;;7.50;99.90;;;;;;5074000;28;20673;-68
2021/11/24 12:28:02;;;;;;;7.60;6.90;;;7.90;99.90;;;;;;5073933;28;20200;-69
2021/11/24 12:33:13;;;;;;;18.25;8.27;;;8.30;99.90;;;;;;5074291;28;20211;-69
2021/11/24 12:35:59;;;;;;;9.65;8.10;;;7.90;99.90;;;;;;5073566;28;20208;-68
2021/11/24 12:38:37;;;;;;;8.52;6.68;;;8.00;99.90;;;;;;5074012;28;20195;-68
2021/11/24 12:41:10;;;;;;;10.02;8.05;;;7.90;99.90;;;;;;5072314;28;20682;-70
2021/11/24 12:43:41;;;;;;;11.80;7.63;;;8.00;99.90;;;;;;5073809;28;20216;-68
2021/11/24 12:46:17;;;;;;;9.63;7.45;;;7.90;99.90;;;;;;5073731;28;20662;-70
2021/11/24 12:49:04;;;;;;;8.90;7.15;;;8.50;99.90;;;;;;5073563;28;20191;-69
2021/11/24 12:51:37;;;;;;;7.43;6.70;;;8.50;99.90;;;;;;5072276;28;20281;-70